Time;durP1;ratioP1;P1;durP2;ratioP2;P2;SDS_P1;SDS_P2;PMS_P1;PMS_P2;Temp;Humidity;BMP_temperature;BMP_pressure;BME280_temperature;BME280_humidity;BME280_pressure;Samples;Min_cycle;Max_cycle;Signal;HPM_P1;HPM_P2
2021/09/22 00:00:06;;;;;;;12.52;9.57;;;10.20;86.70;;;;;;5058410;28;20024;-66
2021/09/22 00:02:31;;;;;;;13.80;9.43;;;10.20;86.80;;;;;;5058204;28;20032;-66
2021/09/22 00:04:57;;;;;;;11.57;9.23;;;10.10;86.70;;;;;;5058466;28;20021;-66
2021/09/22 00:07:22;;;;;;;12.40;9.52;;;10.10;86.90;;;;;;5064188;28;20052;-67
2021/09/22 00:09:48;;;;;;;13.65;8.98;;;10.10;87.00;;;;;;5057975;28;20028;-66
2021/09/22 00:12:14;;;;;;;12.52;9.23;;;10.10;87.00;;;;;;5062348;28;20032;-66
2021/09/22 00:14:39;;;;;;;13.60;9.80;;;10.10;87.10;;;;;;5045587;28;20025;-66
2021/09/22 00:17:05;;;;;;;13.48;9.63;;;10.00;87.00;;;;;;5058388;28;20492;-67
2021/09/22 00:19:30;;;;;;;12.77;9.73;;;10.00;87.00;;;;;;5065121;28;20444;-66
2021/09/22 00:21:56;;;;;;;12.63;9.10;;;10.00;87.00;;;;;;5056151;28;20032;-66
2021/09/22 00:24:22;;;;;;;12.50;9.07;;;9.90;86.80;;;;;;5052704;28;20075;-66
2021/09/22 00:26:47;;;;;;;12.55;9.68;;;9.70;86.90;;;;;;5065060;28;20032;-66
2021/09/22 00:29:13;;;;;;;13.18;9.57;;;9.70;87.20;;;;;;5064542;28;20052;-66
2021/09/22 00:31:38;;;;;;;13.55;9.38;;;9.70;87.40;;;;;;5043414;28;20095;-66
2021/09/22 00:34:05;;;;;;;14.45;9.45;;;9.70;87.50;;;;;;5059606;28;20116;-67
2021/09/22 00:36:31;;;;;;;19.38;9.65;;;9.70;87.50;;;;;;5058532;28;20039;-66
2021/09/22 00:38:56;;;;;;;10.73;8.93;;;9.70;87.50;;;;;;5066894;28;20396;-66
2021/09/22 00:41:22;;;;;;;12.55;9.55;;;9.70;87.60;;;;;;5040812;28;20036;-67
2021/09/22 00:43:48;;;;;;;15.00;10.13;;;9.70;87.60;;;;;;5060459;28;20024;-66
2021/09/22 00:46:13;;;;;;;17.10;9.23;;;9.70;87.60;;;;;;5062418;28;20073;-66
2021/09/22 00:48:39;;;;;;;9.65;8.30;;;9.60;87.60;;;;;;5066510;28;20060;-66
2021/09/22 00:51:06;;;;;;;13.25;9.35;;;9.60;87.90;;;;;;5068602;28;20342;-66
2021/09/22 00:53:33;;;;;;;13.52;8.88;;;9.60;87.90;;;;;;5063928;28;20059;-66
2021/09/22 00:56:03;;;;;;;11.93;8.73;;;9.60;87.90;;;;;;5064329;28;20404;-66
2021/09/22 00:58:28;;;;;;;12.10;9.52;;;9.50;87.90;;;;;;5061210;28;20074;-66
2021/09/22 01:00:54;;;;;;;12.48;8.93;;;9.50;88.00;;;;;;5064172;28;20037;-66
2021/09/22 01:03:20;;;;;;;11.13;8.63;;;9.50;88.00;;;;;;5061582;28;20021;-65
2021/09/22 01:05:47;;;;;;;16.17;9.18;;;9.50;88.10;;;;;;5058919;28;20017;-65
2021/09/22 01:08:15;;;;;;;11.35;8.57;;;9.50;88.20;;;;;;5064371;28;20356;-66
2021/09/22 01:10:41;;;;;;;11.88;9.10;;;9.50;88.30;;;;;;5063582;28;20117;-66
2021/09/22 01:13:06;;;;;;;12.25;9.13;;;9.50;88.10;;;;;;5064723;28;20140;-66
2021/09/22 01:15:35;;;;;;;12.35;9.45;;;9.50;88.00;;;;;;5064428;28;20464;-66
2021/09/22 01:18:02;;;;;;;13.43;9.05;;;9.40;88.10;;;;;;5065474;28;20021;-66
2021/09/22 01:20:30;;;;;;;12.07;9.25;;;9.40;88.10;;;;;;5069239;28;20036;-66
2021/09/22 01:23:01;;;;;;;14.07;9.30;;;9.30;88.30;;;;;;5058981;28;20029;-66
2021/09/22 01:25:27;;;;;;;13.98;9.63;;;9.30;88.30;;;;;;5063406;28;20048;-65
2021/09/22 01:28:00;;;;;;;11.57;8.88;;;9.30;88.30;;;;;;5062898;28;20127;-66
2021/09/22 01:30:26;;;;;;;13.82;10.32;;;9.20;88.40;;;;;;5064183;28;20067;-66
2021/09/22 01:32:57;;;;;;;13.00;9.55;;;9.20;88.50;;;;;;5056173;28;20056;-66
2021/09/22 01:35:23;;;;;;;13.70;8.98;;;9.20;88.60;;;;;;5054704;28;20037;-65
2021/09/22 01:37:49;;;;;;;11.80;9.20;;;9.20;88.40;;;;;;5065868;28;20227;-65
2021/09/22 01:40:17;;;;;;;12.27;9.25;;;9.20;88.70;;;;;;5059157;28;20032;-67
2021/09/22 01:42:43;;;;;;;13.68;9.77;;;9.20;88.80;;;;;;5053896;28;20644;-66
2021/09/22 01:45:11;;;;;;;14.07;9.88;;;9.20;88.90;;;;;;5056362;28;20033;-66
2021/09/22 01:47:37;;;;;;;12.48;8.40;;;9.20;89.00;;;;;;5058504;28;20433;-66
2021/09/22 01:50:07;;;;;;;12.10;9.00;;;9.10;88.80;;;;;;5067306;28;20032;-67
2021/09/22 01:52:33;;;;;;;17.20;9.38;;;9.10;89.20;;;;;;5056793;28;20025;-66
2021/09/22 01:54:59;;;;;;;13.25;9.20;;;9.10;89.00;;;;;;5061681;28;20025;-67
2021/09/22 01:57:25;;;;;;;14.45;10.90;;;9.00;88.90;;;;;;5043137;28;20467;-67
2021/09/22 01:59:50;;;;;;;17.15;11.13;;;8.90;88.80;;;;;;5058688;28;20099;-67
2021/09/22 02:02:16;;;;;;;17.45;11.88;;;8.80;89.20;;;;;;5061241;28;20021;-67
2021/09/22 02:04:42;;;;;;;16.75;11.00;;;8.80;89.40;;;;;;5061065;28;20446;-67
2021/09/22 02:07:08;;;;;;;17.23;11.25;;;8.80;89.70;;;;;;5048877;28;20044;-67
2021/09/22 02:09:33;;;;;;;15.38;11.60;;;8.80;89.90;;;;;;5057729;28;20393;-67
2021/09/22 02:11:59;;;;;;;16.63;12.45;;;8.80;90.00;;;;;;5058505;28;20032;-67
2021/09/22 02:14:24;;;;;;;17.17;11.80;;;8.80;90.00;;;;;;5041932;28;20552;-67
2021/09/22 02:16:50;;;;;;;18.15;11.43;;;8.90;90.00;;;;;;5064903;28;20407;-67
2021/09/22 02:19:16;;;;;;;15.95;11.38;;;8.90;90.00;;;;;;5063584;28;20111;-67
2021/09/22 02:21:42;;;;;;;17.02;11.77;;;8.90;90.10;;;;;;5064427;28;20030;-67
2021/09/22 02:24:07;;;;;;;15.43;11.15;;;8.90;90.00;;;;;;5054560;28;20082;-67
2021/09/22 02:26:33;;;;;;;16.95;11.50;;;8.90;90.00;;;;;;5061386;28;20029;-66
2021/09/22 02:28:58;;;;;;;15.43;10.88;;;8.90;90.00;;;;;;5059808;28;20043;-67
2021/09/22 02:31:24;;;;;;;13.27;10.25;;;8.80;90.10;;;;;;5060571;28;20039;-67
2021/09/22 02:33:49;;;;;;;16.35;10.55;;;8.80;90.10;;;;;;5062779;28;20023;-67
2021/09/22 02:36:15;;;;;;;14.07;10.45;;;8.80;90.10;;;;;;5062353;28;20040;-68
2021/09/22 02:38:40;;;;;;;15.10;10.68;;;8.80;90.10;;;;;;5050508;28;20480;-67
2021/09/22 02:41:06;;;;;;;13.57;10.40;;;8.70;90.10;;;;;;5071715;28;20097;-70
2021/09/22 02:43:32;;;;;;;14.38;9.82;;;8.70;90.20;;;;;;5061516;28;20476;-67
2021/09/22 02:45:57;;;;;;;12.02;9.40;;;8.70;90.30;;;;;;5064711;28;20108;-68
2021/09/22 02:48:23;;;;;;;14.82;9.70;;;8.70;90.30;;;;;;5064138;28;20082;-67
2021/09/22 02:50:51;;;;;;;16.30;10.23;;;8.70;90.30;;;;;;5068918;28;20024;-68
2021/09/22 02:53:17;;;;;;;14.15;9.75;;;8.70;90.30;;;;;;5054328;28;20488;-68
2021/09/22 02:55:43;;;;;;;13.50;9.93;;;8.70;90.30;;;;;;5064233;28;20025;-67
2021/09/22 02:58:09;;;;;;;13.68;10.55;;;8.60;90.20;;;;;;5060053;28;20039;-66
2021/09/22 03:00:35;;;;;;;15.55;10.32;;;8.60;90.20;;;;;;5058560;28;20027;-68
2021/09/22 03:03:00;;;;;;;14.52;10.25;;;8.50;90.20;;;;;;5058067;28;20119;-68
2021/09/22 03:05:26;;;;;;;15.05;10.13;;;8.50;90.20;;;;;;5065851;28;20406;-65
2021/09/22 03:07:52;;;;;;;14.98;9.60;;;8.40;90.30;;;;;;5066337;28;20552;-66
2021/09/22 03:10:19;;;;;;;13.50;10.25;;;8.40;90.40;;;;;;5058667;28;20032;-65
2021/09/22 03:12:45;;;;;;;15.73;9.75;;;8.30;90.40;;;;;;5065161;28;20021;-66
2021/09/22 03:15:11;;;;;;;14.27;9.18;;;8.40;90.50;;;;;;5061949;28;20040;-66
2021/09/22 03:17:36;;;;;;;12.88;9.43;;;8.30;90.50;;;;;;5058466;28;20043;-66
2021/09/22 03:20:03;;;;;;;16.08;10.43;;;8.30;90.50;;;;;;5062165;28;20103;-66
2021/09/22 03:22:29;;;;;;;14.73;10.27;;;8.30;90.60;;;;;;5057681;28;20029;-66
2021/09/22 03:24:55;;;;;;;18.50;10.20;;;8.40;90.60;;;;;;5062015;28;20575;-66
2021/09/22 03:27:20;;;;;;;16.20;10.13;;;8.40;90.60;;;;;;5065931;28;20051;-66
2021/09/22 03:29:46;;;;;;;13.73;9.55;;;8.30;90.50;;;;;;5068485;28;20111;-66
2021/09/22 03:32:12;;;;;;;16.48;10.68;;;8.30;90.50;;;;;;5065947;28;20063;-66
2021/09/22 03:34:38;;;;;;;15.32;10.40;;;8.30;90.60;;;;;;5055429;28;20024;-65
2021/09/22 03:37:03;;;;;;;14.20;10.80;;;8.20;90.60;;;;;;5065338;28;20472;-65
2021/09/22 03:39:29;;;;;;;13.18;9.45;;;8.20;90.60;;;;;;5058402;28;20029;-66
2021/09/22 03:41:55;;;;;;;13.98;9.30;;;8.20;90.60;;;;;;5059773;28;20104;-68
2021/09/22 03:44:20;;;;;;;13.68;9.52;;;8.20;90.60;;;;;;5054146;28;22885;-67
2021/09/22 03:46:46;;;;;;;14.52;9.43;;;8.20;90.70;;;;;;5066267;28;20025;-65
2021/09/22 03:49:12;;;;;;;13.82;9.80;;;8.20;90.60;;;;;;5065432;28;20649;-64
2021/09/22 03:51:37;;;;;;;15.10;9.35;;;8.20;90.70;;;;;;5066472;28;20031;-65
2021/09/22 03:54:03;;;;;;;14.43;10.18;;;8.20;90.60;;;;;;5056823;28;20028;-66
2021/09/22 03:56:28;;;;;;;14.20;9.43;;;8.10;90.60;;;;;;5068177;22;20048;-65
2021/09/22 03:58:54;;;;;;;14.52;9.50;;;8.10;90.60;;;;;;5061763;28;20036;-65
2021/09/22 04:01:20;;;;;;;13.38;9.93;;;8.10;90.70;;;;;;5056676;28;20041;-65
2021/09/22 04:03:45;;;;;;;12.60;9.45;;;8.10;90.70;;;;;;5044482;28;20052;-65
2021/09/22 04:06:11;;;;;;;11.55;9.43;;;8.00;90.70;;;;;;5030565;28;20090;-65
2021/09/22 04:08:37;;;;;;;13.25;9.25;;;8.00;90.70;;;;;;5046901;28;20044;-65
2021/09/22 04:11:03;;;;;;;13.85;9.82;;;8.00;90.70;;;;;;5050466;28;20722;-66
2021/09/22 04:13:28;;;;;;;12.95;9.60;;;8.00;90.70;;;;;;5046164;28;20404;-65
2021/09/22 04:15:54;;;;;;;15.15;9.30;;;8.00;90.70;;;;;;5049763;28;20043;-66
2021/09/22 04:18:19;;;;;;;12.00;9.23;;;8.00;90.70;;;;;;5045830;28;20036;-65
2021/09/22 04:20:45;;;;;;;11.38;8.80;;;7.90;90.70;;;;;;5045036;28;20074;-65
2021/09/22 04:23:10;;;;;;;13.13;9.68;;;7.90;90.70;;;;;;5047554;28;20025;-65
2021/09/22 04:25:36;;;;;;;11.95;8.85;;;7.90;90.70;;;;;;5045769;28;20036;-65
2021/09/22 04:28:02;;;;;;;11.85;8.98;;;7.90;90.70;;;;;;5043316;28;20412;-65
2021/09/22 04:30:28;;;;;;;15.13;9.80;;;7.90;90.70;;;;;;5045523;28;20040;-65
2021/09/22 04:32:53;;;;;;;17.95;10.30;;;7.90;90.70;;;;;;5048379;28;20449;-65
2021/09/22 04:35:19;;;;;;;14.82;9.60;;;7.90;90.70;;;;;;5046309;28;20039;-65
2021/09/22 04:37:47;;;;;;;13.65;9.02;;;7.80;90.60;;;;;;5044100;28;20036;-65
2021/09/22 04:40:13;;;;;;;15.73;10.23;;;7.80;90.70;;;;;;5041278;28;20017;-65
2021/09/22 04:42:39;;;;;;;14.80;9.73;;;7.80;90.70;;;;;;5042648;28;20021;-65
2021/09/22 04:45:06;;;;;;;16.45;9.23;;;7.80;90.70;;;;;;5023843;28;20050;-65
2021/09/22 04:47:32;;;;;;;14.68;9.23;;;7.80;90.80;;;;;;5046857;28;20029;-65
2021/09/22 04:50:03;;;;;;;13.30;9.68;;;7.70;90.80;;;;;;5047302;28;20345;-65
2021/09/22 04:52:28;;;;;;;13.88;8.60;;;7.70;90.70;;;;;;5047576;28;20021;-65
2021/09/22 04:54:54;;;;;;;13.38;9.18;;;7.80;90.70;;;;;;5044813;28;20035;-65
2021/09/22 04:57:19;;;;;;;13.85;9.98;;;7.80;90.70;;;;;;5043923;28;20047;-65
2021/09/22 04:59:45;;;;;;;14.75;9.50;;;7.80;90.70;;;;;;5045551;28;21107;-65
2021/09/22 05:02:11;;;;;;;15.93;8.93;;;7.70;90.60;;;;;;5027422;28;20029;-66
2021/09/22 05:04:36;;;;;;;15.43;9.80;;;7.70;90.70;;;;;;5045641;28;20037;-65
2021/09/22 05:07:02;;;;;;;15.38;9.23;;;7.70;90.70;;;;;;5049143;28;20027;-66
2021/09/22 05:09:28;;;;;;;13.27;9.52;;;7.70;90.70;;;;;;5027953;28;20365;-65
2021/09/22 05:11:54;;;;;;;18.30;10.40;;;7.70;90.70;;;;;;5031464;28;20116;-66
2021/09/22 05:14:20;;;;;;;17.00;10.05;;;7.60;90.70;;;;;;5048137;28;20511;-66
2021/09/22 05:16:46;;;;;;;16.73;11.73;;;7.60;90.70;;;;;;5047518;28;20028;-66
2021/09/22 05:19:12;;;;;;;15.25;10.35;;;7.70;90.70;;;;;;5030553;28;20033;-66
2021/09/22 05:21:37;;;;;;;16.00;10.70;;;7.70;90.70;;;;;;5045973;28;20033;-66
2021/09/22 05:24:03;;;;;;;21.08;11.55;;;7.70;90.80;;;;;;5041345;28;20132;-66
2021/09/22 05:26:29;;;;;;;16.45;11.18;;;7.70;90.80;;;;;;5044576;28;20025;-65
2021/09/22 05:28:54;;;;;;;18.15;10.70;;;7.70;91.00;;;;;;5039506;28;20043;-66
2021/09/22 05:31:20;;;;;;;16.30;10.90;;;7.70;90.80;;;;;;5037605;28;20162;-66
2021/09/22 05:33:46;;;;;;;19.00;11.80;;;7.70;90.90;;;;;;5014770;28;20528;-65
2021/09/22 05:36:12;;;;;;;19.08;12.23;;;7.70;90.90;;;;;;5040385;28;20029;-65
2021/09/22 05:38:37;;;;;;;17.13;11.80;;;7.60;91.00;;;;;;5039245;28;20045;-66
2021/09/22 05:41:03;;;;;;;17.90;11.43;;;7.60;90.90;;;;;;5044475;28;20021;-66
2021/09/22 05:43:29;;;;;;;15.57;10.75;;;7.60;90.90;;;;;;5045148;28;20025;-65
2021/09/22 05:45:54;;;;;;;17.80;11.85;;;7.60;91.00;;;;;;5047417;28;20025;-65
2021/09/22 05:48:20;;;;;;;17.33;12.02;;;7.60;91.00;;;;;;5027065;28;20436;-66
2021/09/22 05:50:45;;;;;;;18.27;12.07;;;7.60;91.20;;;;;;5047985;28;20058;-66
2021/09/22 05:53:11;;;;;;;18.77;11.82;;;7.60;91.00;;;;;;5041795;28;20034;-65
2021/09/22 05:55:37;;;;;;;16.85;11.43;;;7.50;90.90;;;;;;5042594;28;20362;-66
2021/09/22 05:58:02;;;;;;;18.00;11.40;;;7.50;90.90;;;;;;5044198;28;21402;-65
2021/09/22 06:00:28;;;;;;;17.38;10.52;;;7.50;91.00;;;;;;5028848;28;20387;-65
2021/09/22 06:02:53;;;;;;;17.20;10.55;;;7.50;91.00;;;;;;5043487;28;20033;-66
2021/09/22 06:05:19;;;;;;;18.35;10.93;;;7.40;91.00;;;;;;5044054;28;20033;-66
2021/09/22 06:07:45;;;;;;;15.38;10.18;;;7.40;91.00;;;;;;5043193;28;20092;-65
2021/09/22 06:10:10;;;;;;;17.48;11.00;;;7.40;91.10;;;;;;5048863;28;20055;-66
2021/09/22 06:12:36;;;;;;;22.90;11.18;;;7.50;91.20;;;;;;5043895;28;20082;-65
2021/09/22 06:15:02;;;;;;;17.08;10.65;;;7.50;91.20;;;;;;5047685;28;20032;-66
2021/09/22 06:17:28;;;;;;;14.50;10.50;;;7.60;91.30;;;;;;5048601;28;20031;-66
2021/09/22 06:19:54;;;;;;;15.10;10.52;;;7.60;91.30;;;;;;5050107;28;20103;-66
2021/09/22 06:22:24;;;;;;;17.05;11.20;;;7.70;91.30;;;;;;5050694;28;20032;-66
2021/09/22 06:24:50;;;;;;;18.00;11.40;;;7.70;91.50;;;;;;5048883;28;20067;-66
2021/09/22 06:27:16;;;;;;;18.63;10.70;;;7.70;91.20;;;;;;5030605;28;20028;-65
2021/09/22 06:29:41;;;;;;;14.88;10.65;;;7.80;91.30;;;;;;5042490;28;20024;-66
2021/09/22 06:32:08;;;;;;;15.18;10.18;;;7.80;91.30;;;;;;5048605;28;20032;-65
2021/09/22 06:34:33;;;;;;;39.90;25.85;;;7.90;91.40;;;;;;5025551;28;20051;-65
2021/09/22 06:36:59;;;;;;;18.45;10.77;;;7.90;91.50;;;;;;5049800;28;20029;-65
2021/09/22 06:39:25;;;;;;;18.92;12.10;;;8.00;91.50;;;;;;5045856;28;20037;-65
2021/09/22 06:41:50;;;;;;;18.92;11.75;;;8.10;91.50;;;;;;5048693;28;20261;-66
2021/09/22 06:44:16;;;;;;;18.88;13.20;;;8.20;91.40;;;;;;5046830;28;20036;-66
2021/09/22 06:46:41;;;;;;;19.45;13.48;;;8.30;91.40;;;;;;5042041;28;20028;-66
2021/09/22 06:49:07;;;;;;;18.30;12.05;;;8.30;91.40;;;;;;5040661;28;20085;-66
2021/09/22 06:51:33;;;;;;;17.67;12.25;;;8.40;91.40;;;;;;5041602;28;20108;-66
2021/09/22 06:53:58;;;;;;;20.55;14.23;;;8.40;91.50;;;;;;5049173;28;20051;-66
2021/09/22 06:56:25;;;;;;;21.17;14.95;;;8.50;91.40;;;;;;5047139;28;20079;-66
2021/09/22 06:58:51;;;;;;;24.10;15.00;;;8.60;91.40;;;;;;5044018;28;20416;-66
2021/09/22 07:01:18;;;;;;;25.48;15.98;;;8.60;91.30;;;;;;5045111;28;20029;-66
2021/09/22 07:03:43;;;;;;;23.70;15.57;;;8.60;91.30;;;;;;5044742;28;20447;-65
2021/09/22 07:06:11;;;;;;;23.73;14.73;;;8.60;91.30;;;;;;5043953;28;20067;-66
2021/09/22 07:08:37;;;;;;;26.27;15.85;;;8.60;91.40;;;;;;5031506;28;20037;-65
2021/09/22 07:11:03;;;;;;;24.98;15.77;;;8.60;91.50;;;;;;5050041;28;20025;-66
2021/09/22 07:13:31;;;;;;;25.75;14.95;;;8.70;91.60;;;;;;5049253;28;20035;-65
2021/09/22 07:15:57;;;;;;;24.35;16.48;;;8.80;91.60;;;;;;5049122;28;20031;-66
2021/09/22 07:18:23;;;;;;;23.75;15.73;;;8.80;91.60;;;;;;5030750;28;20029;-66
2021/09/22 07:20:49;;;;;;;22.40;14.68;;;8.90;91.70;;;;;;5049320;28;20465;-68
2021/09/22 07:23:15;;;;;;;28.80;17.92;;;9.00;91.70;;;;;;5034183;28;20025;-66
2021/09/22 07:25:41;;;;;;;27.55;18.17;;;9.00;91.60;;;;;;5040536;28;20093;-66
2021/09/22 07:28:07;;;;;;;25.92;17.92;;;9.00;91.60;;;;;;5046324;28;20036;-66
2021/09/22 07:30:33;;;;;;;26.27;17.65;;;9.10;91.60;;;;;;5048701;28;20028;-66
2021/09/22 07:33:00;;;;;;;26.30;17.63;;;9.10;91.60;;;;;;5044652;28;20037;-67
2021/09/22 07:35:26;;;;;;;23.80;15.85;;;9.10;91.60;;;;;;5043437;28;20160;-66
2021/09/22 07:37:52;;;;;;;23.00;15.10;;;9.10;91.60;;;;;;5047348;28;20021;-66
2021/09/22 07:40:18;;;;;;;25.10;15.57;;;9.20;91.70;;;;;;5040247;28;20037;-67
2021/09/22 07:42:44;;;;;;;21.83;14.52;;;9.20;91.70;;;;;;5049982;28;20146;-67
2021/09/22 07:45:10;;;;;;;18.58;13.00;;;9.40;91.60;;;;;;5045491;28;20032;-67
2021/09/22 07:47:36;;;;;;;19.65;13.38;;;9.50;91.60;;;;;;5046910;28;20465;-66
2021/09/22 07:50:03;;;;;;;21.23;14.40;;;9.50;91.60;;;;;;5050419;28;20048;-66
2021/09/22 07:52:28;;;;;;;19.67;13.95;;;9.60;91.40;;;;;;5044013;28;20052;-66
2021/09/22 07:54:54;;;;;;;21.73;13.13;;;9.70;91.40;;;;;;5040005;28;20067;-67
2021/09/22 07:57:19;;;;;;;17.85;13.18;;;9.80;91.50;;;;;;5040892;28;20041;-67
2021/09/22 07:59:45;;;;;;;17.85;13.45;;;10.00;91.50;;;;;;5044224;28;20079;-67
2021/09/22 08:02:11;;;;;;;20.80;13.77;;;10.10;91.30;;;;;;5047862;28;20067;-67
2021/09/22 08:04:36;;;;;;;16.92;12.30;;;10.10;91.20;;;;;;5029166;28;20067;-67
2021/09/22 08:07:03;;;;;;;19.63;13.50;;;10.20;91.30;;;;;;5044666;28;20028;-66
2021/09/22 08:09:30;;;;;;;18.13;12.68;;;10.40;91.60;;;;;;5044355;28;20108;-67
2021/09/22 08:11:55;;;;;;;17.45;11.80;;;10.80;91.30;;;;;;5027923;28;20027;-67
2021/09/22 08:14:21;;;;;;;16.73;11.98;;;11.00;91.30;;;;;;5035411;28;20495;-67
2021/09/22 08:16:47;;;;;;;17.92;13.07;;;11.30;91.20;;;;;;5029943;28;20033;-67
2021/09/22 08:19:13;;;;;;;16.55;11.35;;;11.50;91.10;;;;;;5049037;28;20021;-67
2021/09/22 08:21:39;;;;;;;18.00;12.30;;;11.60;91.10;;;;;;5027742;28;20090;-66
2021/09/22 08:24:05;;;;;;;14.77;11.43;;;11.90;91.20;;;;;;5041205;28;20099;-66
2021/09/22 08:26:30;;;;;;;17.58;12.05;;;12.10;91.10;;;;;;5036372;28;20026;-66
2021/09/22 08:28:57;;;;;;;15.77;11.02;;;12.40;91.00;;;;;;5042871;28;20037;-66
2021/09/22 08:31:23;;;;;;;14.30;10.93;;;12.60;91.00;;;;;;5038382;28;20025;-66
2021/09/22 08:33:49;;;;;;;13.57;10.32;;;12.70;90.70;;;;;;5043023;28;20029;-66
2021/09/22 08:36:15;;;;;;;14.95;10.55;;;13.00;90.80;;;;;;5048395;28;20456;-66
2021/09/22 08:38:40;;;;;;;12.25;9.73;;;13.10;90.30;;;;;;5040537;28;20696;-66
2021/09/22 08:41:06;;;;;;;14.52;9.77;;;13.10;90.10;;;;;;5044712;28;20060;-66
2021/09/22 08:43:32;;;;;;;11.70;9.35;;;13.20;90.20;;;;;;5027164;28;20025;-66
2021/09/22 08:45:58;;;;;;;16.30;9.95;;;13.30;90.20;;;;;;5048368;28;20143;-66
2021/09/22 08:48:24;;;;;;;15.15;10.93;;;13.40;90.00;;;;;;5023696;28;20029;-66
2021/09/22 08:50:51;;;;;;;15.63;9.73;;;13.50;89.60;;;;;;5036858;28;20025;-66
2021/09/22 08:53:17;;;;;;;13.85;9.60;;;13.50;88.90;;;;;;5045855;28;20087;-66
2021/09/22 08:55:43;;;;;;;12.63;8.77;;;13.50;88.70;;;;;;5043014;28;20101;-66
2021/09/22 08:58:08;;;;;;;14.93;8.98;;;13.50;88.80;;;;;;5029935;28;20036;-66
2021/09/22 09:00:34;;;;;;;13.32;8.68;;;13.60;89.00;;;;;;5027432;28;20074;-66
2021/09/22 09:03:00;;;;;;;13.27;8.93;;;13.80;89.20;;;;;;5039532;28;20488;-66
2021/09/22 09:05:26;;;;;;;10.85;8.43;;;13.80;88.30;;;;;;5044683;28;20021;-66
2021/09/22 09:07:57;;;;;;;14.75;8.27;;;13.80;88.10;;;;;;5035732;28;20104;-66
2021/09/22 09:10:34;;;;;;;13.40;8.48;;;14.00;88.20;;;;;;5040687;28;20090;-66
2021/09/22 09:13:09;;;;;;;9.27;7.75;;;14.20;87.50;;;;;;5046437;28;20033;-66
2021/09/22 09:15:45;;;;;;;9.75;7.53;;;14.30;87.00;;;;;;5047327;28;20028;-66
2021/09/22 09:18:18;;;;;;;10.52;7.43;;;14.30;87.00;;;;;;5036567;28;20021;-66
2021/09/22 09:20:49;;;;;;;9.15;7.20;;;14.40;87.60;;;;;;5047636;28;20128;-66
2021/09/22 09:23:17;;;;;;;8.20;6.65;;;14.50;86.50;;;;;;5045348;28;20489;-66
2021/09/22 09:25:45;;;;;;;8.27;5.80;;;14.60;86.30;;;;;;5037685;28;20025;-66
2021/09/22 09:28:15;;;;;;;7.65;6.00;;;14.60;86.00;;;;;;5043127;28;20032;-66
2021/09/22 09:30:45;;;;;;;7.20;5.82;;;14.70;86.20;;;;;;5038114;28;20079;-66
2021/09/22 09:33:10;;;;;;;12.30;5.80;;;14.90;87.00;;;;;;5044588;28;20112;-66
2021/09/22 09:35:36;;;;;;;10.82;5.68;;;15.10;86.30;;;;;;5043332;28;20053;-65
2021/09/22 09:38:01;;;;;;;5.90;5.05;;;15.30;86.10;;;;;;5040106;28;20029;-66
2021/09/22 09:40:33;;;;;;;8.65;5.40;;;15.50;85.50;;;;;;5038763;28;20133;-66
2021/09/22 09:43:04;;;;;;;8.50;4.90;;;15.60;85.00;;;;;;5040659;28;20525;-65
2021/09/22 09:45:50;;;;;;;5.78;4.53;;;15.60;84.90;;;;;;5044599;28;20036;-65
2021/09/22 09:48:19;;;;;;;7.50;5.22;;;15.80;84.60;;;;;;5045372;28;20025;-65
2021/09/22 09:50:59;;;;;;;11.05;5.05;;;15.90;84.40;;;;;;5041095;28;20108;-67
2021/09/22 09:53:36;;;;;;;11.20;5.72;;;16.00;83.90;;;;;;5043887;28;20025;-64
2021/09/22 09:56:47;;;;;;;10.55;4.70;;;16.00;84.10;;;;;;5087918;22;20068;-85
2021/09/22 09:59:16;;;;;;;5.82;4.28;;;16.20;84.20;;;;;;5044411;28;20158;-88
2021/09/22 10:01:54;;;;;;;6.15;4.40;;;16.40;84.20;;;;;;5035021;28;21067;-89
2021/09/22 10:04:23;;;;;;;7.22;4.07;;;16.60;84.10;;;;;;5048093;28;20025;-90
2021/09/22 10:06:57;;;;;;;9.30;4.60;;;16.80;84.00;;;;;;5035148;28;20047;-88
2021/09/22 10:09:25;;;;;;;6.95;4.40;;;17.00;83.60;;;;;;5028803;28;20421;-89
2021/09/22 10:12:34;;;;;;;8.20;4.60;;;17.20;83.30;;;;;;5027965;28;20086;-89
2021/09/22 10:15:00;;;;;;;6.88;4.80;;;17.50;82.40;;;;;;5046082;28;20048;-88
2021/09/22 10:18:34;;;;;;;5.25;4.13;;;17.60;82.10;;;;;;5055907;28;20019;-88
2021/09/22 10:22:10;;;;;;;7.00;4.32;;;17.70;81.50;;;;;;4949450;28;20037;-90
2021/09/22 10:25:15;;;;;;;6.22;3.45;;;17.80;81.30;;;;;;5020390;28;20029;-90
2021/09/22 10:28:13;;;;;;;4.60;3.10;;;17.90;80.70;;;;;;5037658;28;20033;-89
2021/09/22 10:31:08;;;;;;;5.53;3.90;;;17.90;80.50;;;;;;5057534;28;20029;-90
2021/09/22 10:34:11;;;;;;;4.50;3.42;;;18.00;80.60;;;;;;5032796;28;20028;-90
2021/09/22 10:37:12;;;;;;;;;;;;;;;;;;;;;
2021/09/22 10:39:48;;;;;;;4.68;3.40;;;18.20;80.50;;;;;;5049707;28;20043;-91
2021/09/22 10:42:38;;;;;;;12.20;7.95;;;18.30;80.30;;;;;;5036282;28;20107;-91
2021/09/22 10:45:46;;;;;;;5.28;4.18;;;18.40;80.00;;;;;;5052737;28;20138;-91
2021/09/22 10:48:34;;;;;;;4.50;3.70;;;18.60;79.60;;;;;;5031898;28;20036;-91
2021/09/22 10:51:09;;;;;;;5.68;3.75;;;18.80;79.30;;;;;;5030396;28;20113;-91
2021/09/22 10:54:23;;;;;;;4.75;3.55;;;18.90;79.10;;;;;;5032516;28;20037;-91
2021/09/22 10:56:54;;;;;;;4.07;3.35;;;19.00;78.70;;;;;;5029010;28;20130;-91
2021/09/22 10:59:32;;;;;;;6.43;3.20;;;19.10;78.70;;;;;;5035878;28;20053;-90
2021/09/22 11:02:45;;;;;;;6.80;3.75;;;19.20;77.90;;;;;;5027233;28;20025;-90
2021/09/22 11:05:44;;;;;;;4.10;2.35;;;19.20;77.80;;;;;;5037792;28;20297;-91
2021/09/22 11:08:36;;;;;;;3.75;2.20;;;19.30;77.80;;;;;;5029209;28;20032;-90
2021/09/22 11:11:03;;;;;;;2.20;2.00;;;19.40;77.70;;;;;;5032666;28;20170;-90
2021/09/22 11:13:33;;;;;;;6.05;2.22;;;19.30;77.20;;;;;;5034779;28;20492;-90
2021/09/22 11:16:33;;;;;;;2.55;2.25;;;19.30;76.60;;;;;;5024771;28;20021;-88
2021/09/22 11:19:02;;;;;;;2.60;2.30;;;19.30;76.50;;;;;;5010176;28;20086;-90
2021/09/22 11:21:50;;;;;;;5.50;2.13;;;19.40;76.80;;;;;;5029845;28;20040;-89
2021/09/22 11:24:22;;;;;;;5.25;2.72;;;19.50;76.50;;;;;;5036567;28;20095;-89
2021/09/22 11:26:50;;;;;;;6.72;3.08;;;19.60;76.10;;;;;;5033670;28;20035;-89
2021/09/22 11:29:39;;;;;;;4.47;2.25;;;19.60;75.70;;;;;;5026287;28;20511;-90
2021/09/22 11:32:27;;;;;;;2.63;2.28;;;19.60;75.10;;;;;;5033993;28;20424;-91
2021/09/22 11:34:59;;;;;;;4.25;2.90;;;19.60;76.00;;;;;;5021072;28;20308;-91
2021/09/22 11:37:36;;;;;;;3.63;2.50;;;19.70;76.10;;;;;;5031414;28;20036;-91
2021/09/22 11:40:34;;;;;;;3.60;2.55;;;19.70;76.20;;;;;;5037920;28;20060;-91
2021/09/22 11:43:29;;;;;;;2.90;2.22;;;19.80;75.40;;;;;;5038179;28;20124;-90
2021/09/22 11:46:00;;;;;;;4.82;2.47;;;19.80;75.10;;;;;;5063864;23;20049;-67
2021/09/22 11:48:31;;;;;;;5.00;2.28;;;19.80;75.10;;;;;;5054833;28;20032;-68
2021/09/22 11:50:58;;;;;;;3.70;2.05;;;19.70;74.80;;;;;;5053234;28;20029;-65
2021/09/22 11:53:26;;;;;;;2.67;2.22;;;19.70;74.50;;;;;;5040092;28;20686;-66
2021/09/22 11:55:52;;;;;;;4.57;2.35;;;19.60;73.80;;;;;;5041865;28;20029;-69
2021/09/22 11:58:20;;;;;;;3.30;2.33;;;19.50;73.70;;;;;;5042096;28;20468;-65
2021/09/22 12:00:52;;;;;;;3.97;2.20;;;19.30;73.90;;;;;;5044867;28;20017;-67
2021/09/22 12:03:22;;;;;;;3.10;2.10;;;19.30;74.90;;;;;;5041711;28;20032;-69
2021/09/22 12:06:12;;;;;;;2.15;1.83;;;19.30;75.30;;;;;;5047449;28;20022;-65
2021/09/22 12:08:40;;;;;;;3.95;2.13;;;19.30;75.60;;;;;;5035123;28;20039;-68
2021/09/22 12:11:07;;;;;;;2.50;1.92;;;19.40;76.20;;;;;;5041430;28;20091;-65
2021/09/22 12:13:41;;;;;;;3.70;2.03;;;19.50;76.40;;;;;;5042805;28;20029;-66
2021/09/22 12:16:07;;;;;;;2.60;2.22;;;19.50;75.40;;;;;;5034257;28;20108;-66
2021/09/22 12:18:33;;;;;;;6.15;2.80;;;19.50;75.30;;;;;;5035983;28;20163;-67
2021/09/22 12:21:00;;;;;;;2.45;2.17;;;19.50;75.80;;;;;;5038495;28;20095;-68
2021/09/22 12:23:29;;;;;;;4.13;2.65;;;19.60;75.30;;;;;;5027760;28;20017;-67
2021/09/22 12:26:12;;;;;;;4.25;2.15;;;19.60;75.50;;;;;;5045245;28;20035;-65
2021/09/22 12:28:39;;;;;;;3.00;1.90;;;19.60;75.60;;;;;;5041595;28;20465;-66
2021/09/22 12:31:35;;;;;;;3.88;1.60;;;19.60;75.80;;;;;;5050167;28;20056;-67
2021/09/22 12:34:01;;;;;;;2.63;1.85;;;19.60;74.80;;;;;;5043641;28;20037;-68
2021/09/22 12:36:26;;;;;;;3.00;1.88;;;19.60;75.40;;;;;;5050145;28;20112;-65
2021/09/22 12:38:54;;;;;;;4.22;1.52;;;19.60;75.00;;;;;;5037838;28;20071;-66
2021/09/22 12:41:21;;;;;;;2.35;1.50;;;19.50;74.30;;;;;;5028529;28;20021;-68
2021/09/22 12:43:57;;;;;;;3.47;2.05;;;19.40;74.70;;;;;;5041688;28;20077;-70
2021/09/22 12:46:23;;;;;;;2.97;1.77;;;19.40;74.80;;;;;;5031799;28;20513;-70
2021/09/22 12:48:49;;;;;;;2.25;1.52;;;19.50;74.80;;;;;;5038880;28;20103;-67
2021/09/22 12:51:24;;;;;;;4.18;1.38;;;19.50;74.50;;;;;;5030633;28;20034;-66
2021/09/22 12:53:50;;;;;;;2.58;1.70;;;19.60;73.90;;;;;;5040569;28;20099;-66